Seabourn Pride — C6FR5 — position and weather

sailwx.info

Track history (hours):
 
Tides and Currents Weather Stations Pressure Air Temp Water Temp Dewpoint Dewpoint Depression Visibility Wind Speed Wind Dir Waves Ship Positions

Seabourn Pride

Operator: Cunard Seabourn

Last reported at 2018-Aug-15 03:09 UTC. Time now 2018-Aug-18 00:47 UTC.
Position N 65°26' W 024°36'.

Length 134 m; draft 5.7 m.

Type: Passenger vessel. MMSI: 311084000.

Date/timePositionNaut miles runAvg speedWind from/ knotsBaromVisibWave heightAir tempDewpointWater temp
2018-Aug-15 03:09N 65°26' W 024°36'212.9
2018-Aug-15 03:00N 65°27' W 024°39'56 3.5
2018-Aug-14 10:53N 66°08' W 023°05'6 8.4
2018-Aug-14 10:07N 66°14' W 023°09'1 8.3
2018-Aug-14 10:01N 66°15' W 023°10'4 7.9
2018-Aug-14 09:30N 66°18' W 023°14'4 7.5
2018-Aug-14 08:59N 66°22' W 023°16'4 8.2
2018-Aug-14 08:30N 66°26' W 023°14'4 8.2
2018-Aug-14 07:59N 66°29' W 023°05'4 8.6
2018-Aug-14 07:30N 66°30' W 022°56'510.1
2018-Aug-14 07:00N 66°31' W 022°44'713.1
2018-Aug-14 06:30N 66°31' W 022°27'612.7
2018-Aug-14 06:00N 66°31' W 022°11'612.8
2018-Aug-14 05:30N 66°30' W 021°55'612.0
2018-Aug-14 05:00N 66°29' W 021°40'611.8
2018-Aug-14 04:30N 66°28' W 021°26'611.8
2018-Aug-14 04:00N 66°27' W 021°11'611.2
2018-Aug-14 03:30N 66°25' W 020°58'611.0
2018-Aug-14 02:58N 66°25' W 020°43'4810.7
2018-Aug-13 22:31N 66°16' W 018°46'010.9
2018-Aug-13 22:30N 66°15' W 018°46'31 1.6
2018-Aug-13 03:59N 66°28' W 017°37'  
2018-Aug-10 14:42N 63°27' W 020°16'0 0.0
2018-Aug-10 14:30N 63°27' W 020°16'15 1.9
2018-Aug-10 06:23N 63°16' W 020°41'3 7.9
2018-Aug-10 06:00N 63°19' W 020°41'4 7.3
2018-Aug-10 05:30N 63°21' W 020°48'4 8.2
2018-Aug-10 05:00N 63°23' W 020°57'4 8.2
2018-Aug-10 04:30N 63°24' W 021°05'4 8.1
2018-Aug-10 04:00N 63°26' W 021°14'4 8.3
2018-Aug-10 03:30N 63°27' W 021°23'4 8.6
2018-Aug-10 03:00N 63°28' W 021°32'4 8.7
2018-Aug-10 02:29N 63°30' W 021°41'4 8.6
2018-Aug-10 02:00N 63°31' W 021°50'  
Track history (hours):
 
Tides and Currents Weather Stations Pressure Air Temp Water Temp Dewpoint Dewpoint Depression Visibility Wind Speed Wind Dir Waves Ship Positions

Seabourn Pride

Operator: Cunard Seabourn

Last reported at 2018-Aug-15 03:09 UTC. Time now 2018-Aug-18 00:47 UTC.
Position N 65°26' W 024°36'.

Length 134 m; draft 5.7 m.

Type: Passenger vessel. MMSI: 311084000.

Date/timePositionNaut miles runAvg speedWind from/ knotsBaromVisibWave heightAir tempDewpointWater temp
2018-Aug-15 03:09N 65°26' W 024°36'212.9
2018-Aug-15 03:00N 65°27' W 024°39'56 3.5
2018-Aug-14 10:53N 66°08' W 023°05'6 8.4
2018-Aug-14 10:07N 66°14' W 023°09'1 8.3
2018-Aug-14 10:01N 66°15' W 023°10'4 7.9
2018-Aug-14 09:30N 66°18' W 023°14'4 7.5
2018-Aug-14 08:59N 66°22' W 023°16'4 8.2
2018-Aug-14 08:30N 66°26' W 023°14'4 8.2
2018-Aug-14 07:59N 66°29' W 023°05'4 8.6
2018-Aug-14 07:30N 66°30' W 022°56'510.1
2018-Aug-14 07:00N 66°31' W 022°44'713.1
2018-Aug-14 06:30N 66°31' W 022°27'612.7
2018-Aug-14 06:00N 66°31' W 022°11'612.8
2018-Aug-14 05:30N 66°30' W 021°55'612.0
2018-Aug-14 05:00N 66°29' W 021°40'611.8
2018-Aug-14 04:30N 66°28' W 021°26'611.8
2018-Aug-14 04:00N 66°27' W 021°11'611.2
2018-Aug-14 03:30N 66°25' W 020°58'611.0
2018-Aug-14 02:58N 66°25' W 020°43'4810.7
2018-Aug-13 22:31N 66°16' W 018°46'010.9
2018-Aug-13 22:30N 66°15' W 018°46'31 1.6
2018-Aug-13 03:59N 66°28' W 017°37'  
2018-Aug-10 14:42N 63°27' W 020°16'0 0.0
2018-Aug-10 14:30N 63°27' W 020°16'15 1.9
2018-Aug-10 06:23N 63°16' W 020°41'3 7.9
2018-Aug-10 06:00N 63°19' W 020°41'4 7.3
2018-Aug-10 05:30N 63°21' W 020°48'4 8.2
2018-Aug-10 05:00N 63°23' W 020°57'4 8.2
2018-Aug-10 04:30N 63°24' W 021°05'4 8.1
2018-Aug-10 04:00N 63°26' W 021°14'4 8.3
2018-Aug-10 03:30N 63°27' W 021°23'4 8.6
2018-Aug-10 03:00N 63°28' W 021°32'4 8.7
2018-Aug-10 02:29N 63°30' W 021°41'4 8.6
2018-Aug-10 02:00N 63°31' W 021°50'  

Dump ship's entire track history